Time,TemperatureF,DewpointF,PressureIn,WindDirection,WindDirectionDegrees,WindSpeedMPH,WindSpeedGustMPH,Humidity,HourlyPrecipIn,Conditions,Clouds,dailyrainin,SoftwareType,DateUTC
2013-05-21 00:00:00,64.2,64.2,30.10,South,172,0.0,0.0,100,0.00,,,0.00,Weather View 32 v70,2013-05-21 04:00:00,
2013-05-21 00:01:00,64.2,64.2,30.10,South,172,0.0,0.0,100,0.00,,,0.00,Weather View 32 v70,2013-05-21 04:01:00,
2013-05-21 00:06:00,64.1,64.1,30.10,South,172,0.0,0.0,100,0.00,,,0.00,Weather View 32 v70,2013-05-21 04:06:00,
2013-05-21 00:11:00,64.0,64.0,30.10,South,172,0.0,0.0,100,0.00,,,0.00,Weather View 32 v70,2013-05-21 04:11:00,
2013-05-21 00:16:00,63.8,63.8,30.10,South,172,0.0,0.0,100,0.00,,,0.00,Weather View 32 v70,2013-05-21 04:16:00,
2013-05-21 00:21:00,63.8,63.8,30.10,South,172,0.0,0.0,100,0.00,,,0.00,Weather View 32 v70,2013-05-21 04:21:00,
2013-05-21 00:26:00,63.8,63.8,30.10,South,172,0.0,0.0,100,0.00,,,0.00,Weather View 32 v70,2013-05-21 04:26:00,
2013-05-21 00:31:00,63.8,63.8,30.10,South,172,0.0,0.0,100,0.00,,,0.00,Weather View 32 v70,2013-05-21 04:31:00,
2013-05-21 00:36:00,63.7,63.7,30.10,South,172,0.0,0.0,100,0.00,,,0.00,Weather View 32 v70,2013-05-21 04:36:00,
2013-05-21 00:41:00,63.7,63.7,30.10,South,172,0.0,0.0,100,0.00,,,0.00,Weather View 32 v70,2013-05-21 04:41:00,
2013-05-21 00:46:00,63.8,63.8,30.10,South,172,0.0,0.0,100,0.00,,,0.00,Weather View 32 v70,2013-05-21 04:46:00,
2013-05-21 00:51:00,63.8,63.8,30.10,South,172,0.0,0.0,100,0.00,,,0.00,Weather View 32 v70,2013-05-21 04:51:00,
2013-05-21 00:56:00,63.8,63.8,30.10,South,172,0.0,0.0,100,0.00,,,0.00,Weather View 32 v70,2013-05-21 04:56:00,
2013-05-21 01:01:00,63.8,63.8,30.10,South,172,0.0,0.0,100,0.00,,,0.00,Weather View 32 v70,2013-05-21 05:01:00,
2013-05-21 01:06:00,63.8,63.8,30.10,South,172,0.0,0.0,100,0.00,,,0.00,Weather View 32 v70,2013-05-21 05:06:00,
2013-05-21 01:11:00,63.8,63.8,30.10,South,172,0.0,0.0,100,0.00,,,0.00,Weather View 32 v70,2013-05-21 05:11:00,
2013-05-21 01:16:00,63.8,63.8,30.10,South,172,0.0,0.0,100,0.00,,,0.00,Weather View 32 v70,2013-05-21 05:16:00,
2013-05-21 01:21:00,63.8,63.8,30.10,South,172,0.0,0.0,100,0.00,,,0.00,Weather View 32 v70,2013-05-21 05:21:00,
2013-05-21 01:26:00,63.8,63.8,30.10,South,172,0.0,0.0,100,0.00,,,0.00,Weather View 32 v70,2013-05-21 05:26:00,
2013-05-21 01:31:00,63.8,63.8,30.09,South,172,0.0,0.0,100,0.00,,,0.00,Weather View 32 v70,2013-05-21 05:31:00,
2013-05-21 01:36:00,64.0,64.0,30.10,South,172,0.0,0.0,100,0.00,,,0.00,Weather View 32 v70,2013-05-21 05:36:00,
2013-05-21 01:41:00,64.0,64.0,30.09,South,172,0.0,0.0,100,0.00,,,0.00,Weather View 32 v70,2013-05-21 05:41:00,
2013-05-21 01:46:00,64.1,64.1,30.09,South,172,0.0,0.0,100,0.00,,,0.00,Weather View 32 v70,2013-05-21 05:46:00,
2013-05-21 01:51:00,64.1,64.1,30.09,South,171,0.0,0.0,100,0.00,,,0.00,Weather View 32 v70,2013-05-21 05:51:00,
2013-05-21 01:56:00,64.2,64.2,30.09,South,172,0.0,0.0,100,0.00,,,0.00,Weather View 32 v70,2013-05-21 05:56:00,
2013-05-21 02:01:00,64.2,64.2,30.09,South,172,0.0,0.0,100,0.00,,,0.00,Weather View 32 v70,2013-05-21 06:01:00,
2013-05-21 02:06:00,64.2,64.2,30.09,South,172,0.0,0.0,100,0.00,,,0.00,Weather View 32 v70,2013-05-21 06:06:00,
2013-05-21 02:11:00,64.3,64.3,30.09,South,172,0.0,0.0,100,0.00,,,0.00,Weather View 32 v70,2013-05-21 06:11:00,
2013-05-21 02:16:00,64.3,64.3,30.09,South,172,0.0,0.0,100,0.00,,,0.00,Weather View 32 v70,2013-05-21 06:16:00,
2013-05-21 02:21:00,64.3,64.3,30.09,South,171,0.0,0.0,100,0.00,,,0.00,Weather View 32 v70,2013-05-21 06:21:00,
2013-05-21 02:26:00,64.3,64.3,30.09,South,171,0.0,0.0,100,0.00,,,0.00,Weather View 32 v70,2013-05-21 06:26:00,
2013-05-21 02:31:00,64.3,64.3,30.09,South,171,0.0,0.0,100,0.00,,,0.00,Weather View 32 v70,2013-05-21 06:31:00,
2013-05-21 02:36:00,64.3,64.3,30.09,South,171,0.0,0.0,100,0.00,,,0.00,Weather View 32 v70,2013-05-21 06:36:00,
2013-05-21 02:41:00,64.3,64.3,30.09,South,171,0.0,0.0,100,0.00,,,0.00,Weather View 32 v70,2013-05-21 06:41:00,
2013-05-21 02:46:00,64.2,64.2,30.09,South,170,0.0,0.0,100,0.00,,,0.00,Weather View 32 v70,2013-05-21 06:46:00,
2013-05-21 02:51:00,64.2,64.2,30.08,South,170,0.0,0.0,100,0.00,,,0.00,Weather View 32 v70,2013-05-21 06:51:00,
2013-05-21 02:56:00,64.1,64.1,30.08,South,170,0.0,0.0,100,0.00,,,0.00,Weather View 32 v70,2013-05-21 06:56:00,
2013-05-21 03:01:00,64.1,64.1,30.08,South,170,0.0,0.0,100,0.00,,,0.00,Weather View 32 v70,2013-05-21 07:01:00,
2013-05-21 03:06:00,64.0,64.0,30.08,South,170,0.0,0.0,100,0.00,,,0.00,Weather View 32 v70,2013-05-21 07:06:00,
2013-05-21 03:11:00,63.8,63.8,30.08,South,170,0.0,0.0,100,0.00,,,0.00,Weather View 32 v70,2013-05-21 07:11:00,
2013-05-21 03:16:00,63.7,63.7,30.08,South,170,0.0,0.0,100,0.00,,,0.00,Weather View 32 v70,2013-05-21 07:16:00,
2013-05-21 03:21:00,63.6,63.6,30.08,South,170,0.0,0.0,100,0.00,,,0.00,Weather View 32 v70,2013-05-21 07:21:00,
2013-05-21 03:26:00,63.5,63.5,30.08,South,170,0.0,0.0,100,0.00,,,0.00,Weather View 32 v70,2013-05-21 07:26:00,
2013-05-21 03:31:00,63.5,63.5,30.08,South,170,0.0,0.0,100,0.00,,,0.00,Weather View 32 v70,2013-05-21 07:31:00,
2013-05-21 03:36:00,63.4,63.4,30.08,South,170,0.0,0.0,100,0.00,,,0.00,Weather View 32 v70,2013-05-21 07:36:00,
2013-05-21 03:41:00,63.2,63.2,30.08,South,170,0.0,0.0,100,0.00,,,0.00,Weather View 32 v70,2013-05-21 07:41:00,
2013-05-21 03:46:00,63.0,63.0,30.08,South,170,0.0,0.0,100,0.00,,,0.00,Weather View 32 v70,2013-05-21 07:46:00,
2013-05-21 03:51:00,62.8,62.8,30.08,South,170,0.0,0.0,100,0.00,,,0.00,Weather View 32 v70,2013-05-21 07:51:00,
2013-05-21 03:56:00,62.6,62.6,30.07,South,170,0.0,0.0,100,0.00,,,0.00,Weather View 32 v70,2013-05-21 07:56:00,
2013-05-21 04:01:00,62.5,62.5,30.07,South,170,0.0,0.0,100,0.00,,,0.00,Weather View 32 v70,2013-05-21 08:01:00,
2013-05-21 04:06:00,62.3,62.3,30.07,South,170,0.0,0.0,100,0.00,,,0.00,Weather View 32 v70,2013-05-21 08:06:00,
2013-05-21 04:11:00,62.1,62.1,30.07,South,170,0.0,0.0,100,0.00,,,0.00,Weather View 32 v70,2013-05-21 08:11:00,
2013-05-21 04:16:00,62.0,62.0,30.07,South,170,0.0,0.0,100,0.00,,,0.00,Weather View 32 v70,2013-05-21 08:16:00,
2013-05-21 04:21:00,61.9,61.9,30.07,South,170,0.0,0.0,100,0.00,,,0.00,Weather View 32 v70,2013-05-21 08:21:00,
2013-05-21 04:27:00,61.7,61.7,30.07,South,170,0.0,0.0,100,0.00,,,0.00,Weather View 32 v70,2013-05-21 08:27:00,
2013-05-21 04:32:00,61.5,61.5,30.07,South,170,0.0,0.0,100,0.00,,,0.00,Weather View 32 v70,2013-05-21 08:32:00,
2013-05-21 04:37:00,61.4,61.4,30.07,South,170,0.0,0.0,100,0.00,,,0.00,Weather View 32 v70,2013-05-21 08:37:00,
2013-05-21 04:42:00,61.3,61.3,30.07,South,170,0.0,0.0,100,0.00,,,0.00,Weather View 32 v70,2013-05-21 08:42:00,
2013-05-21 04:47:00,61.4,61.4,30.07,South,170,0.0,0.0,100,0.00,,,0.00,Weather View 32 v70,2013-05-21 08:47:00,
2013-05-21 04:52:00,61.5,61.5,30.07,South,170,0.0,0.0,100,0.00,,,0.00,Weather View 32 v70,2013-05-21 08:52:00,
2013-05-21 04:57:00,61.6,61.6,30.07,South,170,0.0,0.0,100,0.00,,,0.00,Weather View 32 v70,2013-05-21 08:57:00,
2013-05-21 05:02:00,61.6,61.6,30.07,South,170,0.0,0.0,100,0.00,,,0.00,Weather View 32 v70,2013-05-21 09:02:00,
2013-05-21 05:07:00,61.7,61.7,30.07,South,170,0.0,0.0,100,0.00,,,0.00,Weather View 32 v70,2013-05-21 09:07:00,
2013-05-21 05:12:00,61.7,61.7,30.07,South,170,0.0,0.0,100,0.00,,,0.00,Weather View 32 v70,2013-05-21 09:12:00,
2013-05-21 05:17:00,61.7,61.7,30.07,South,170,0.0,0.0,100,0.00,,,0.00,Weather View 32 v70,2013-05-21 09:17:00,
2013-05-21 05:22:00,61.7,61.7,30.07,South,170,0.0,0.0,100,0.00,,,0.00,Weather View 32 v70,2013-05-21 09:22:00,
2013-05-21 05:27:00,61.7,61.7,30.07,South,170,0.0,0.0,100,0.00,,,0.00,Weather View 32 v70,2013-05-21 09:27:00,
2013-05-21 05:32:00,61.7,61.7,30.07,South,170,0.0,0.0,100,0.00,,,0.00,Weather View 32 v70,2013-05-21 09:32:00,
2013-05-21 05:37:00,61.6,61.6,30.07,South,170,0.0,0.0,100,0.00,,,0.00,Weather View 32 v70,2013-05-21 09:37:00,
2013-05-21 05:42:00,61.5,61.5,30.07,South,170,0.0,0.0,100,0.00,,,0.00,Weather View 32 v70,2013-05-21 09:42:00,
2013-05-21 05:47:00,61.4,61.4,30.07,South,170,0.0,0.0,100,0.00,,,0.00,Weather View 32 v70,2013-05-21 09:47:00,
2013-05-21 05:52:00,61.1,61.1,30.07,South,170,0.0,0.0,100,0.00,,,0.00,Weather View 32 v70,2013-05-21 09:52:00,
2013-05-21 05:57:00,60.8,60.8,30.07,South,170,0.0,0.0,100,0.00,,,0.00,Weather View 32 v70,2013-05-21 09:57:00,
2013-05-21 06:02:00,60.6,60.6,30.07,SSE,167,0.0,0.0,100,0.00,,,0.00,Weather View 32 v70,2013-05-21 10:02:00,
2013-05-21 06:07:00,60.4,60.4,30.07,SSE,167,0.0,0.0,100,0.00,,,0.00,Weather View 32 v70,2013-05-21 10:07:00,
2013-05-21 06:12:00,60.2,60.2,30.08,SSE,167,0.0,0.0,100,0.00,,,0.00,Weather View 32 v70,2013-05-21 10:12:00,
2013-05-21 06:17:00,60.0,60.0,30.08,SSE,167,0.0,0.0,100,0.00,,,0.00,Weather View 32 v70,2013-05-21 10:17:00,
2013-05-21 06:22:00,59.9,59.9,30.08,SSE,167,0.0,0.0,100,0.00,,,0.00,Weather View 32 v70,2013-05-21 10:22:00,
2013-05-21 06:27:00,59.9,59.9,30.08,SSE,167,0.0,0.0,100,0.00,,,0.00,Weather View 32 v70,2013-05-21 10:27:00,
2013-05-21 06:32:00,59.9,59.9,30.08,SSE,167,0.0,0.0,100,0.00,,,0.00,Weather View 32 v70,2013-05-21 10:32:00,
2013-05-21 06:37:00,60.0,60.0,30.08,SSE,167,0.0,0.0,100,0.00,,,0.00,Weather View 32 v70,2013-05-21 10:37:00,
2013-05-21 06:42:00,60.1,60.1,30.08,SSE,167,0.0,0.0,100,0.00,,,0.00,Weather View 32 v70,2013-05-21 10:42:00,
2013-05-21 06:47:00,60.3,60.3,30.08,SSE,167,0.0,0.0,100,0.00,,,0.00,Weather View 32 v70,2013-05-21 10:47:00,
2013-05-21 06:52:00,60.4,60.4,30.08,SSE,167,0.0,0.0,100,0.00,,,0.00,Weather View 32 v70,2013-05-21 10:52:00,
2013-05-21 06:57:00,60.4,60.4,30.08,SSE,167,0.0,0.0,100,0.00,,,0.00,Weather View 32 v70,2013-05-21 10:57:00,
2013-05-21 07:02:00,60.5,60.5,30.09,SSE,167,0.0,0.0,100,0.00,,,0.00,Weather View 32 v70,2013-05-21 11:02:00,
2013-05-21 07:07:00,60.6,60.6,30.09,SSE,167,0.0,0.0,100,0.00,,,0.00,Weather View 32 v70,2013-05-21 11:07:00,
2013-05-21 07:12:00,60.6,60.6,30.09,SSE,167,0.0,0.0,100,0.00,,,0.00,Weather View 32 v70,2013-05-21 11:12:00,
2013-05-21 07:17:00,60.7,60.7,30.09,SSE,167,0.0,0.0,100,0.00,,,0.00,Weather View 32 v70,2013-05-21 11:17:00,
2013-05-21 07:22:00,60.7,60.7,30.09,SSE,167,0.0,0.0,100,0.00,,,0.00,Weather View 32 v70,2013-05-21 11:22:00,
2013-05-21 07:27:00,60.8,60.8,30.09,SSE,167,0.0,0.0,100,0.00,,,0.00,Weather View 32 v70,2013-05-21 11:27:00,
2013-05-21 07:33:00,60.8,60.8,30.09,SSE,168,0.0,0.0,100,0.00,,,0.00,Weather View 32 v70,2013-05-21 11:33:00,
2013-05-21 07:38:00,60.8,60.8,30.09,SSE,168,0.0,0.0,100,0.00,,,0.00,Weather View 32 v70,2013-05-21 11:38:00,
2013-05-21 07:43:00,60.8,60.8,30.09,SSE,167,0.0,0.0,100,0.00,,,0.00,Weather View 32 v70,2013-05-21 11:43:00,
2013-05-21 07:48:00,60.8,60.8,30.09,SSE,167,0.0,0.0,100,0.00,,,0.00,Weather View 32 v70,2013-05-21 11:48:00,
2013-05-21 07:53:00,60.8,60.8,30.09,SSE,167,0.0,0.0,100,0.00,,,0.00,Weather View 32 v70,2013-05-21 11:53:00,
2013-05-21 07:58:00,60.8,60.8,30.09,SSE,168,0.0,0.0,100,0.00,,,0.00,Weather View 32 v70,2013-05-21 11:58:00,
2013-05-21 08:03:00,60.8,60.8,30.09,SSE,167,0.0,0.0,100,0.00,,,0.00,Weather View 32 v70,2013-05-21 12:03:00,
2013-05-21 08:08:00,60.8,60.8,30.10,SSE,167,0.0,0.0,100,0.00,,,0.00,Weather View 32 v70,2013-05-21 12:08:00,
2013-05-21 08:13:00,60.9,60.9,30.09,ENE,58,0.0,0.0,100,0.00,,,0.00,Weather View 32 v70,2013-05-21 12:13:00,
2013-05-21 08:18:00,61.0,61.0,30.10,ENE,58,0.0,0.0,100,0.00,,,0.00,Weather View 32 v70,2013-05-21 12:18:00,
2013-05-21 08:23:00,61.2,61.2,30.10,NE,46,0.0,0.0,100,0.00,,,0.00,Weather View 32 v70,2013-05-21 12:23:00,
2013-05-21 08:28:00,61.3,61.3,30.10,NE,47,0.0,0.0,100,0.00,,,0.00,Weather View 32 v70,2013-05-21 12:28:00,
2013-05-21 08:33:00,61.4,61.4,30.09,NE,51,0.0,0.0,100,0.00,,,0.00,Weather View 32 v70,2013-05-21 12:33:00,
2013-05-21 08:38:00,61.6,61.6,30.09,NE,51,0.0,0.0,100,0.00,,,0.00,Weather View 32 v70,2013-05-21 12:38:00,
2013-05-21 08:43:00,61.6,61.6,30.09,North,10,0.0,0.0,100,0.00,,,0.00,Weather View 32 v70,2013-05-21 12:43:00,
2013-05-21 08:48:00,61.7,61.7,30.10,North,11,0.0,0.0,100,0.00,,,0.00,Weather View 32 v70,2013-05-21 12:48:00,
2013-05-21 08:53:00,61.7,61.7,30.10,NNE,15,0.0,0.0,100,0.00,,,0.00,Weather View 32 v70,2013-05-21 12:53:00,
2013-05-21 08:58:00,61.9,61.9,30.11,NNE,15,0.0,0.0,100,0.00,,,0.00,Weather View 32 v70,2013-05-21 12:58:00,
2013-05-21 09:03:00,62.1,62.1,30.11,NNE,33,0.0,0.0,100,0.00,,,0.00,Weather View 32 v70,2013-05-21 13:03:00,
2013-05-21 09:08:00,62.2,62.2,30.11,NNE,24,0.0,0.0,100,0.00,,,0.00,Weather View 32 v70,2013-05-21 13:08:00,
2013-05-21 09:13:00,62.3,62.3,30.11,NE,43,0.0,0.0,100,0.00,,,0.00,Weather View 32 v70,2013-05-21 13:13:00,
2013-05-21 09:18:00,62.5,62.5,30.10,NE,41,0.0,0.0,100,0.00,,,0.00,Weather View 32 v70,2013-05-21 13:18:00,
2013-05-21 09:23:00,62.6,62.6,30.10,NNE,17,0.0,0.0,100,0.00,,,0.00,Weather View 32 v70,2013-05-21 13:23:00,
2013-05-21 09:28:00,62.8,62.8,30.10,NNE,17,0.0,0.0,100,0.00,,,0.00,Weather View 32 v70,2013-05-21 13:28:00,
2013-05-21 09:33:00,63.0,63.0,30.10,NNE,16,0.0,0.0,100,0.00,,,0.00,Weather View 32 v70,2013-05-21 13:33:00,
2013-05-21 09:38:00,63.4,63.4,30.09,NNE,16,0.0,0.0,100,0.00,,,0.00,Weather View 32 v70,2013-05-21 13:38:00,
2013-05-21 09:43:00,63.8,63.8,30.09,NNE,17,0.0,0.0,100,0.00,,,0.00,Weather View 32 v70,2013-05-21 13:43:00,
2013-05-21 09:48:00,64.3,64.3,30.09,NNE,17,0.0,0.0,100,0.00,,,0.00,Weather View 32 v70,2013-05-21 13:48:00,
2013-05-21 09:53:00,64.8,64.8,30.09,NNE,17,0.0,0.0,100,0.00,,,0.00,Weather View 32 v70,2013-05-21 13:53:00,
2013-05-21 09:58:00,65.2,65.2,30.09,NNE,17,0.0,0.0,100,0.00,,,0.00,Weather View 32 v70,2013-05-21 13:58:00,
2013-05-21 10:03:00,65.5,65.5,30.09,SW,217,0.0,0.0,100,0.00,,,0.00,Weather View 32 v70,2013-05-21 14:03:00,
2013-05-21 10:08:00,65.7,65.7,30.10,NNW,346,0.0,0.0,100,0.00,,,0.00,Weather View 32 v70,2013-05-21 14:08:00,
2013-05-21 10:13:00,66.3,66.3,30.10,West,274,0.0,0.0,100,0.00,,,0.00,Weather View 32 v70,2013-05-21 14:13:00,
2013-05-21 10:18:00,66.8,66.8,30.09,NW,325,0.0,0.0,100,0.00,,,0.00,Weather View 32 v70,2013-05-21 14:18:00,
2013-05-21 10:23:00,67.4,67.4,30.09,NNE,31,0.0,0.0,100,0.00,,,0.00,Weather View 32 v70,2013-05-21 14:23:00,
2013-05-21 10:29:00,68.3,67.7,30.08,NW,319,0.0,0.0,98,0.00,,,0.00,Weather View 32 v70,2013-05-21 14:29:00,
2013-05-21 10:34:00,69.5,68.3,30.09,NW,318,0.0,0.0,96,0.00,,,0.00,Weather View 32 v70,2013-05-21 14:34:00,
2013-05-21 10:39:00,70.5,68.1,30.09,West,277,0.0,2.0,92,0.00,,,0.00,Weather View 32 v70,2013-05-21 14:39:00,
2013-05-21 10:44:00,71.5,69.0,30.09,SSW,210,0.0,2.0,92,0.00,,,0.00,Weather View 32 v70,2013-05-21 14:44:00,
2013-05-21 10:49:00,72.0,67.6,30.09,NNW,347,0.0,2.0,86,0.00,,,0.00,Weather View 32 v70,2013-05-21 14:49:00,
2013-05-21 10:54:00,73.0,69.2,30.09,WNW,284,0.0,2.0,88,0.00,,,0.00,Weather View 32 v70,2013-05-21 14:54:00,
2013-05-21 10:59:00,73.4,68.6,30.09,South,179,0.0,2.0,85,0.00,,,0.00,Weather View 32 v70,2013-05-21 14:59:00,
2013-05-21 11:04:00,73.8,67.6,30.09,NW,319,0.0,3.0,81,0.00,,,0.00,Weather View 32 v70,2013-05-21 15:04:00,
2013-05-21 11:09:00,74.2,68.3,30.09,SSW,194,0.0,3.0,82,0.00,,,0.00,Weather View 32 v70,2013-05-21 15:09:00,
2013-05-21 11:14:00,74.5,67.2,30.09,WSW,250,0.0,3.0,78,0.00,,,0.00,Weather View 32 v70,2013-05-21 15:14:00,
2013-05-21 11:19:00,75.0,67.3,30.09,NNW,343,2.0,3.0,77,0.00,,,0.00,Weather View 32 v70,2013-05-21 15:19:00,
2013-05-21 11:24:00,75.3,67.6,30.09,NNE,12,0.0,3.0,77,0.00,,,0.00,Weather View 32 v70,2013-05-21 15:24:00,
2013-05-21 11:29:00,75.4,66.1,30.09,NNW,331,0.0,3.0,73,0.00,,,0.00,Weather View 32 v70,2013-05-21 15:29:00,
2013-05-21 11:34:00,75.6,65.5,30.09,SSE,155,2.0,4.0,71,0.00,,,0.00,Weather View 32 v70,2013-05-21 15:34:00,
2013-05-21 11:39:00,76.2,65.7,30.09,North,10,0.0,4.0,70,0.00,,,0.00,Weather View 32 v70,2013-05-21 15:39:00,
2013-05-21 11:44:00,76.7,66.1,30.09,North,349,0.0,4.0,70,0.00,,,0.00,Weather View 32 v70,2013-05-21 15:44:00,
2013-05-21 11:49:00,77.6,67.0,30.09,SW,225,0.0,4.0,70,0.00,,,0.00,Weather View 32 v70,2013-05-21 15:49:00,
2013-05-21 11:54:00,78.2,67.2,30.09,SW,225,0.0,4.0,69,0.00,,,0.00,Weather View 32 v70,2013-05-21 15:54:00,
2013-05-21 11:59:00,78.3,66.4,30.09,South,178,0.0,4.0,67,0.00,,,0.00,Weather View 32 v70,2013-05-21 15:59:00,
2013-05-21 12:04:00,77.9,65.6,30.09,NW,315,0.0,4.0,66,0.00,,,0.00,Weather View 32 v70,2013-05-21 16:04:00,
2013-05-21 12:09:00,78.4,66.5,30.09,SSE,161,0.0,4.0,67,0.00,,,0.00,Weather View 32 v70,2013-05-21 16:09:00,
2013-05-21 12:14:00,78.4,65.2,30.09,East,81,0.0,4.0,64,0.00,,,0.00,Weather View 32 v70,2013-05-21 16:14:00,
2013-05-21 12:19:00,78.6,65.4,30.09,North,349,0.0,4.0,64,0.00,,,0.00,Weather View 32 v70,2013-05-21 16:19:00,
2013-05-21 12:24:00,78.3,66.4,30.09,NE,37,0.0,5.0,67,0.00,,,0.00,Weather View 32 v70,2013-05-21 16:24:00,
2013-05-21 12:29:00,78.4,65.2,30.09,NE,47,2.0,5.0,64,0.00,,,0.00,Weather View 32 v70,2013-05-21 16:29:00,
2013-05-21 12:34:00,78.7,65.4,30.08,NNE,18,0.0,5.0,64,0.00,,,0.00,Weather View 32 v70,2013-05-21 16:34:00,
2013-05-21 12:39:00,78.6,65.4,30.08,North,9,0.0,5.0,64,0.00,,,0.00,Weather View 32 v70,2013-05-21 16:39:00,
2013-05-21 12:44:00,78.7,65.4,30.08,North,355,0.0,5.0,64,0.00,,,0.00,Weather View 32 v70,2013-05-21 16:44:00,
2013-05-21 12:49:00,79.3,65.1,30.08,NNW,336,0.0,5.0,62,0.00,,,0.00,Weather View 32 v70,2013-05-21 16:49:00,
2013-05-21 12:54:00,79.4,66.6,30.08,NNE,30,0.0,5.0,65,0.00,,,0.00,Weather View 32 v70,2013-05-21 16:54:00,
2013-05-21 13:00:00,79.3,64.2,30.08,NNW,345,0.0,5.0,60,0.00,,,0.00,Weather View 32 v70,2013-05-21 17:00:00,
2013-05-21 13:05:00,80.2,66.4,30.08,NNW,333,0.0,5.0,63,0.00,,,0.00,Weather View 32 v70,2013-05-21 17:05:00,
2013-05-21 13:10:00,80.4,64.7,30.07,North,350,4.0,5.0,59,0.00,,,0.00,Weather View 32 v70,2013-05-21 17:10:00,
2013-05-21 13:15:00,79.7,63.1,30.07,NNE,14,1.0,5.0,57,0.00,,,0.00,Weather View 32 v70,2013-05-21 17:15:00,
2013-05-21 13:20:00,79.7,62.6,30.07,NNE,26,1.0,5.0,56,0.00,,,0.00,Weather View 32 v70,2013-05-21 17:20:00,
2013-05-21 13:25:00,80.0,62.8,30.08,North,9,3.0,5.0,56,0.00,,,0.00,Weather View 32 v70,2013-05-21 17:25:00,
2013-05-21 13:30:00,80.2,64.5,30.07,NE,41,2.0,5.0,59,0.00,,,0.00,Weather View 32 v70,2013-05-21 17:30:00,
2013-05-21 13:35:00,80.3,62.6,30.07,North,11,3.0,6.0,55,0.00,,,0.00,Weather View 32 v70,2013-05-21 17:35:00,
2013-05-21 13:40:00,80.9,63.7,30.07,NW,306,0.0,6.0,56,0.00,,,0.00,Weather View 32 v70,2013-05-21 17:40:00,
2013-05-21 13:45:00,81.3,64.6,30.07,North,357,0.0,6.0,57,0.00,,,0.00,Weather View 32 v70,2013-05-21 17:45:00,
2013-05-21 13:50:00,81.9,64.6,30.07,North,7,0.0,6.0,56,0.00,,,0.00,Weather View 32 v70,2013-05-21 17:50:00,
2013-05-21 13:55:00,82.1,63.7,30.06,NNE,15,0.0,6.0,54,0.00,,,0.00,Weather View 32 v70,2013-05-21 17:55:00,
2013-05-21 14:00:00,81.5,63.2,30.06,North,350,0.0,6.0,54,0.00,,,0.00,Weather View 32 v70,2013-05-21 18:00:00,
2013-05-21 14:05:00,81.5,63.7,30.06,North,350,0.0,6.0,55,0.00,,,0.00,Weather View 32 v70,2013-05-21 18:05:00,
2013-05-21 14:10:00,81.7,65.4,30.06,North,350,0.0,6.0,58,0.00,,,0.00,Weather View 32 v70,2013-05-21 18:10:00,
2013-05-21 14:15:00,81.9,66.6,30.06,North,350,0.0,6.0,60,0.00,,,0.00,Weather View 32 v70,2013-05-21 18:15:00,
2013-05-21 14:20:00,81.6,65.3,30.05,NNE,14,0.0,6.0,58,0.00,,,0.00,Weather View 32 v70,2013-05-21 18:20:00,
2013-05-21 14:25:00,82.2,64.9,30.05,West,279,0.0,6.0,56,0.00,,,0.00,Weather View 32 v70,2013-05-21 18:25:00,
2013-05-21 14:30:00,81.8,65.5,30.05,NNE,18,0.0,6.0,58,0.00,,,0.00,Weather View 32 v70,2013-05-21 18:30:00,
2013-05-21 14:35:00,81.4,64.6,30.05,North,353,2.0,6.0,57,0.00,,,0.00,Weather View 32 v70,2013-05-21 18:35:00,
2013-05-21 14:40:00,81.4,67.1,30.05,NE,36,0.0,5.0,62,0.00,,,0.00,Weather View 32 v70,2013-05-21 18:40:00,
2013-05-21 14:46:00,80.7,65.0,30.05,North,11,0.0,5.0,59,0.00,,,0.00,Weather View 32 v70,2013-05-21 18:46:00,
2013-05-21 14:51:00,81.2,66.9,30.05,SW,215,0.0,5.0,62,0.00,,,0.00,Weather View 32 v70,2013-05-21 18:51:00,
2013-05-21 14:56:00,82.0,67.6,30.05,SE,136,0.0,5.0,62,0.00,,,0.00,Weather View 32 v70,2013-05-21 18:56:00,
2013-05-21 15:01:00,82.4,68.0,30.05,East,96,1.0,5.0,62,0.00,,,0.00,Weather View 32 v70,2013-05-21 19:01:00,
2013-05-21 15:06:00,81.2,66.4,30.05,ENE,77,4.0,5.0,61,0.00,,,0.00,Weather View 32 v70,2013-05-21 19:06:00,
2013-05-21 15:11:00,80.0,66.7,30.05,NE,50,3.0,5.0,64,0.00,,,0.00,Weather View 32 v70,2013-05-21 19:11:00,
2013-05-21 15:16:00,79.0,66.6,30.05,East,98,0.0,5.0,66,0.00,,,0.00,Weather View 32 v70,2013-05-21 19:16:00,
2013-05-21 15:21:00,78.6,66.2,30.04,East,98,0.0,5.0,66,0.00,,,0.00,Weather View 32 v70,2013-05-21 19:21:00,
2013-05-21 15:26:00,78.2,67.2,30.04,ESE,123,0.0,5.0,69,0.00,,,0.00,Weather View 32 v70,2013-05-21 19:26:00,
2013-05-21 15:31:00,77.7,67.1,30.04,ESE,123,0.0,5.0,70,0.00,,,0.00,Weather View 32 v70,2013-05-21 19:31:00,
2013-05-21 15:36:00,77.3,67.5,30.04,ESE,123,0.0,5.0,72,0.00,,,0.00,Weather View 32 v70,2013-05-21 19:36:00,
2013-05-21 15:41:00,77.2,67.8,30.03,SE,142,0.0,5.0,73,0.00,,,0.00,Weather View 32 v70,2013-05-21 19:41:00,
2013-05-21 15:46:00,77.9,69.3,30.03,SE,138,0.0,5.0,75,0.00,,,0.00,Weather View 32 v70,2013-05-21 19:46:00,
2013-05-21 15:51:00,78.3,68.5,30.03,SSE,159,0.0,8.0,72,0.00,,,0.00,Weather View 32 v70,2013-05-21 19:51:00,
2013-05-21 15:56:00,78.6,69.6,30.04,SSE,150,0.0,8.0,74,0.00,,,0.00,Weather View 32 v70,2013-05-21 19:56:00,
2013-05-21 16:01:00,78.5,69.9,30.03,SSE,152,0.0,8.0,75,0.00,,,0.00,Weather View 32 v70,2013-05-21 20:01:00,
2013-05-21 16:06:00,77.6,69.4,30.03,ESE,119,0.0,8.0,76,0.00,,,0.00,Weather View 32 v70,2013-05-21 20:06:00,
2013-05-21 16:11:00,77.3,68.3,30.03,ESE,120,1.0,8.0,74,0.00,,,0.00,Weather View 32 v70,2013-05-21 20:11:00,
2013-05-21 16:16:00,76.8,67.8,30.03,East,100,2.0,8.0,74,0.00,,,0.00,Weather View 32 v70,2013-05-21 20:16:00,
2013-05-21 16:21:00,76.5,67.6,30.03,East,82,1.0,9.0,74,0.00,,,0.00,Weather View 32 v70,2013-05-21 20:21:00,
2013-05-21 16:26:00,76.3,66.6,30.03,SSE,151,4.0,9.0,72,0.00,,,0.00,Weather View 32 v70,2013-05-21 20:26:00,
2013-05-21 16:31:00,76.0,66.3,30.02,ESE,104,1.0,9.0,72,0.00,,,0.00,Weather View 32 v70,2013-05-21 20:31:00,
2013-05-21 16:36:00,75.9,66.2,30.02,SSE,151,10.0,10.0,72,0.00,,,0.00,Weather View 32 v70,2013-05-21 20:36:00,
2013-05-21 16:41:00,76.2,66.9,30.03,East,96,2.0,12.0,73,0.00,,,0.00,Weather View 32 v70,2013-05-21 20:41:00,
2013-05-21 16:46:00,76.5,67.6,30.03,ESE,112,0.0,12.0,74,0.00,,,0.00,Weather View 32 v70,2013-05-21 20:46:00,
2013-05-21 16:51:00,76.3,67.4,30.03,SSE,158,0.0,12.0,74,0.00,,,0.00,Weather View 32 v70,2013-05-21 20:51:00,
2013-05-21 16:56:00,75.9,67.8,30.03,NE,51,0.0,12.0,76,0.00,,,0.00,Weather View 32 v70,2013-05-21 20:56:00,
2013-05-21 17:01:00,75.4,68.0,30.03,NE,50,0.0,12.0,78,0.00,,,0.00,Weather View 32 v70,2013-05-21 21:01:00,
2013-05-21 17:06:00,75.2,68.6,30.02,NE,51,0.0,12.0,80,0.00,,,0.00,Weather View 32 v70,2013-05-21 21:06:00,
2013-05-21 17:11:00,75.3,69.4,30.02,NE,52,0.0,12.0,82,0.00,,,0.00,Weather View 32 v70,2013-05-21 21:11:00,
2013-05-21 17:16:00,75.2,69.7,30.01,East,83,0.0,12.0,83,0.00,,,0.00,Weather View 32 v70,2013-05-21 21:16:00,
2013-05-21 17:21:00,74.7,68.8,30.01,East,83,0.0,12.0,82,0.00,,,0.00,Weather View 32 v70,2013-05-21 21:21:00,
2013-05-21 17:26:00,73.6,68.8,30.02,East,81,3.0,12.0,85,0.00,,,0.00,Weather View 32 v70,2013-05-21 21:26:00,
2013-05-21 17:31:00,72.5,67.4,30.02,ESE,116,0.0,12.0,84,0.01,,,0.01,Weather View 32 v70,2013-05-21 21:31:00,
2013-05-21 17:36:00,71.4,66.3,30.02,NW,316,1.0,12.0,84,0.01,,,0.01,Weather View 32 v70,2013-05-21 21:36:00,
2013-05-21 17:41:00,70.5,65.4,30.02,South,181,0.0,6.0,84,0.01,,,0.01,Weather View 32 v70,2013-05-21 21:41:00,
2013-05-21 17:46:00,69.6,64.9,30.02,NNE,27,4.0,5.0,85,0.01,,,0.01,Weather View 32 v70,2013-05-21 21:46:00,
2013-05-21 17:51:00,68.6,64.6,30.01,North,7,0.0,5.0,87,0.01,,,0.01,Weather View 32 v70,2013-05-21 21:51:00,
2013-05-21 17:56:00,67.7,63.7,30.00,WSW,243,2.0,5.0,87,0.01,,,0.01,Weather View 32 v70,2013-05-21 21:56:00,
2013-05-21 18:01:00,66.7,62.7,30.00,West,266,0.0,5.0,87,0.01,,,0.01,Weather View 32 v70,2013-05-21 22:01:00,
2013-05-21 18:06:00,65.8,61.1,30.01,ENE,76,2.0,5.0,85,0.01,,,0.01,Weather View 32 v70,2013-05-21 22:06:00,
2013-05-21 18:11:00,65.7,61.7,30.02,East,98,0.0,5.0,87,0.01,,,0.01,Weather View 32 v70,2013-05-21 22:11:00,
2013-05-21 18:16:00,65.5,62.2,30.01,NNW,348,0.0,5.0,89,0.01,,,0.01,Weather View 32 v70,2013-05-21 22:16:00,
2013-05-21 18:21:00,65.2,62.5,30.01,SE,135,0.0,5.0,91,0.01,,,0.01,Weather View 32 v70,2013-05-21 22:21:00,
2013-05-21 18:27:00,64.7,62.3,30.02,North,7,0.0,5.0,92,0.01,,,0.01,Weather View 32 v70,2013-05-21 22:27:00,
2013-05-21 18:32:00,64.2,62.1,30.02,SSW,196,0.0,5.0,93,0.00,,,0.01,Weather View 32 v70,2013-05-21 22:32:00,
2013-05-21 18:37:00,64.0,62.5,30.02,West,262,0.0,5.0,95,0.00,,,0.01,Weather View 32 v70,2013-05-21 22:37:00,
2013-05-21 18:42:00,63.8,62.3,30.02,SW,222,0.0,5.0,95,0.01,,,0.02,Weather View 32 v70,2013-05-21 22:42:00,
2013-05-21 18:47:00,63.7,62.5,30.02,SW,221,0.0,5.0,96,0.01,,,0.02,Weather View 32 v70,2013-05-21 22:47:00,
2013-05-21 18:52:00,63.4,62.2,30.02,NNW,334,0.0,5.0,96,0.01,,,0.02,Weather View 32 v70,2013-05-21 22:52:00,
2013-05-21 18:57:00,63.4,62.8,30.03,NNE,30,0.0,5.0,98,0.02,,,0.03,Weather View 32 v70,2013-05-21 22:57:00,
2013-05-21 19:02:00,63.3,62.7,30.03,NNE,30,0.0,5.0,98,0.02,,,0.03,Weather View 32 v70,2013-05-21 23:02:00,
2013-05-21 19:07:00,63.1,62.8,30.03,South,185,0.0,5.0,99,0.02,,,0.03,Weather View 32 v70,2013-05-21 23:07:00,
2013-05-21 19:12:00,63.0,62.7,30.03,South,185,0.0,5.0,99,0.02,,,0.03,Weather View 32 v70,2013-05-21 23:12:00,
2013-05-21 19:17:00,62.9,62.9,30.03,South,185,0.0,5.0,100,0.02,,,0.03,Weather View 32 v70,2013-05-21 23:17:00,
2013-05-21 19:22:00,63.1,63.1,30.02,South,180,1.0,5.0,100,0.03,,,0.04,Weather View 32 v70,2013-05-21 23:22:00,
2013-05-21 19:27:00,63.1,63.1,30.02,SE,140,0.0,5.0,100,0.03,,,0.04,Weather View 32 v70,2013-05-21 23:27:00,
2013-05-21 19:32:00,63.1,63.1,30.03,East,91,0.0,5.0,100,0.03,,,0.04,Weather View 32 v70,2013-05-21 23:32:00,
2013-05-21 19:37:00,63.1,63.1,30.03,East,91,0.0,5.0,100,0.03,,,0.04,Weather View 32 v70,2013-05-21 23:37:00,
2013-05-21 19:42:00,62.9,62.9,30.03,North,8,0.0,5.0,100,0.02,,,0.04,Weather View 32 v70,2013-05-21 23:42:00,
2013-05-21 19:47:00,62.9,62.9,30.03,SSW,192,0.0,5.0,100,0.02,,,0.04,Weather View 32 v70,2013-05-21 23:47:00,
2013-05-21 19:52:00,62.8,62.8,30.04,SSW,199,0.0,5.0,100,0.02,,,0.04,Weather View 32 v70,2013-05-21 23:52:00,
2013-05-21 19:57:00,62.6,62.6,30.05,SSW,208,0.0,5.0,100,0.01,,,0.04,Weather View 32 v70,2013-05-21 23:57:00,
2013-05-21 20:02:00,62.1,62.1,30.06,SSW,195,2.0,5.0,100,0.01,,,0.04,Weather View 32 v70,2013-05-22 00:02:00,
2013-05-21 20:07:00,62.0,62.0,30.06,SSW,195,0.0,5.0,100,0.01,,,0.04,Weather View 32 v70,2013-05-22 00:07:00,
2013-05-21 20:12:00,61.8,61.8,30.06,SSW,195,0.0,5.0,100,0.01,,,0.04,Weather View 32 v70,2013-05-22 00:12:00,
2013-05-21 20:17:00,61.8,61.8,30.07,East,96,0.0,5.0,100,0.01,,,0.04,Weather View 32 v70,2013-05-22 00:17:00,
2013-05-21 20:22:00,61.8,61.8,30.08,South,172,0.0,3.0,100,0.00,,,0.04,Weather View 32 v70,2013-05-22 00:22:00,
2013-05-21 20:27:00,61.8,61.8,30.09,West,259,0.0,3.0,100,0.00,,,0.04,Weather View 32 v70,2013-05-22 00:27:00,
2013-05-21 20:32:00,61.8,61.8,30.09,NW,322,0.0,3.0,100,0.00,,,0.04,Weather View 32 v70,2013-05-22 00:32:00,
2013-05-21 20:37:00,61.8,61.8,30.10,NW,316,0.0,3.0,100,0.00,,,0.04,Weather View 32 v70,2013-05-22 00:37:00,
2013-05-21 20:42:00,61.8,61.8,30.09,NW,316,0.0,3.0,100,0.00,,,0.04,Weather View 32 v70,2013-05-22 00:42:00,
2013-05-21 20:47:00,61.7,61.7,30.09,North,7,0.0,3.0,100,0.00,,,0.04,Weather View 32 v70,2013-05-22 00:47:00,
2013-05-21 20:52:00,61.7,61.7,30.08,East,83,0.0,3.0,100,0.00,,,0.04,Weather View 32 v70,2013-05-22 00:52:00,
2013-05-21 20:57:00,61.7,61.7,30.08,SSE,159,0.0,3.0,100,0.00,,,0.04,Weather View 32 v70,2013-05-22 00:57:00,
2013-05-21 21:03:00,61.8,61.8,30.08,SSE,158,0.0,2.0,100,0.00,,,0.04,Weather View 32 v70,2013-05-22 01:03:00,
2013-05-21 21:08:00,61.8,61.8,30.08,SSE,158,0.0,0.0,100,0.00,,,0.04,Weather View 32 v70,2013-05-22 01:08:00,
2013-05-21 21:13:00,61.7,61.7,30.07,SSE,159,0.0,0.0,100,0.00,,,0.04,Weather View 32 v70,2013-05-22 01:13:00,
2013-05-21 21:18:00,61.7,61.7,30.07,SSE,159,0.0,0.0,100,0.01,,,0.05,Weather View 32 v70,2013-05-22 01:18:00,
2013-05-21 21:23:00,61.6,61.6,30.07,SSW,192,0.0,0.0,100,0.01,,,0.05,Weather View 32 v70,2013-05-22 01:23:00,
2013-05-21 21:28:00,61.6,61.6,30.06,SSW,193,0.0,0.0,100,0.01,,,0.05,Weather View 32 v70,2013-05-22 01:28:00,
2013-05-21 21:33:00,61.6,61.6,30.05,SSW,193,0.0,0.0,100,0.02,,,0.06,Weather View 32 v70,2013-05-22 01:33:00,
2013-05-21 21:38:00,61.3,61.3,30.04,SSE,159,0.0,0.0,100,0.02,,,0.06,Weather View 32 v70,2013-05-22 01:38:00,
2013-05-21 21:43:00,60.7,60.7,30.03,SSE,161,0.0,2.0,100,0.02,,,0.06,Weather View 32 v70,2013-05-22 01:43:00,
2013-05-21 21:48:00,60.3,60.3,30.01,SSW,210,0.0,2.0,100,0.02,,,0.06,Weather View 32 v70,2013-05-22 01:48:00,
2013-05-21 21:53:00,60.0,60.0,30.00,North,8,0.0,2.0,100,0.03,,,0.07,Weather View 32 v70,2013-05-22 01:53:00,
2013-05-21 21:58:00,59.7,59.7,30.00,North,10,0.0,2.0,100,0.03,,,0.07,Weather View 32 v70,2013-05-22 01:58:00,
2013-05-21 22:03:00,59.6,59.6,30.00,North,10,0.0,2.0,100,0.03,,,0.07,Weather View 32 v70,2013-05-22 02:03:00,
2013-05-21 22:08:00,59.8,59.8,30.02,ENE,58,0.0,2.0,100,0.03,,,0.07,Weather View 32 v70,2013-05-22 02:08:00,
2013-05-21 22:13:00,59.6,59.6,30.03,South,188,0.0,2.0,100,0.03,,,0.07,Weather View 32 v70,2013-05-22 02:13:00,
2013-05-21 22:18:00,59.5,59.5,30.03,SSW,192,0.0,2.0,100,0.02,,,0.07,Weather View 32 v70,2013-05-22 02:18:00,
2013-05-21 22:23:00,59.6,59.6,30.03,SSW,199,0.0,2.0,100,0.02,,,0.07,Weather View 32 v70,2013-05-22 02:23:00,
2013-05-21 22:28:00,59.5,59.5,30.04,SSE,148,1.0,2.0,100,0.02,,,0.07,Weather View 32 v70,2013-05-22 02:28:00,
2013-05-21 22:33:00,59.5,59.5,30.04,SSE,151,0.0,2.0,100,0.01,,,0.07,Weather View 32 v70,2013-05-22 02:33:00,
2013-05-21 22:38:00,59.6,59.6,30.05,NNE,17,0.0,2.0,100,0.01,,,0.07,Weather View 32 v70,2013-05-22 02:38:00,
2013-05-21 22:43:00,59.5,59.5,30.05,NNE,17,0.0,2.0,100,0.01,,,0.07,Weather View 32 v70,2013-05-22 02:43:00,
2013-05-21 22:48:00,59.5,59.5,30.06,SSE,159,0.0,2.0,100,0.01,,,0.07,Weather View 32 v70,2013-05-22 02:48:00,
2013-05-21 22:53:00,59.4,59.4,30.06,SSE,152,0.0,2.0,100,0.00,,,0.07,Weather View 32 v70,2013-05-22 02:53:00,
2013-05-21 22:58:00,59.3,59.3,30.06,SSE,153,0.0,2.0,100,0.00,,,0.07,Weather View 32 v70,2013-05-22 02:58:00,
2013-05-21 23:03:00,59.2,59.2,30.07,SSE,153,0.0,2.0,100,0.00,,,0.07,Weather View 32 v70,2013-05-22 03:03:00,
2013-05-21 23:08:00,59.1,59.1,30.07,SSE,153,0.0,2.0,100,0.00,,,0.07,Weather View 32 v70,2013-05-22 03:08:00,
2013-05-21 23:13:00,59.1,59.1,30.07,SSE,153,0.0,2.0,100,0.00,,,0.07,Weather View 32 v70,2013-05-22 03:13:00,
2013-05-21 23:18:00,59.0,59.0,30.07,SE,141,0.0,2.0,100,0.00,,,0.07,Weather View 32 v70,2013-05-22 03:18:00,
2013-05-21 23:23:00,59.0,59.0,30.07,SE,140,0.0,2.0,100,0.00,,,0.07,Weather View 32 v70,2013-05-22 03:23:00,
2013-05-21 23:28:00,58.8,58.8,30.07,SE,142,0.0,2.0,100,0.00,,,0.07,Weather View 32 v70,2013-05-22 03:28:00,
2013-05-21 23:33:00,58.7,58.7,30.07,SE,142,0.0,0.0,100,0.00,,,0.07,Weather View 32 v70,2013-05-22 03:33:00,
2013-05-21 23:39:00,58.7,58.7,30.07,SE,142,0.0,0.0,100,0.00,,,0.07,Weather View 32 v70,2013-05-22 03:39:00,
2013-05-21 23:44:00,58.6,58.6,30.07,SE,142,0.0,0.0,100,0.00,,,0.07,Weather View 32 v70,2013-05-22 03:44:00,
2013-05-21 23:49:00,58.6,58.6,30.07,SE,142,0.0,0.0,100,0.00,,,0.07,Weather View 32 v70,2013-05-22 03:49:00,
2013-05-21 23:54:00,58.5,58.5,30.07,SE,143,0.0,0.0,100,-0.07,,,0.07,Weather View 32 v70,2013-05-22 03:54:00,
2013-05-21 23:59:00,58.4,58.4,30.07,SSW,193,0.0,0.0,100,-0.07,,,0.07,Weather View 32 v70,2013-05-22 03:59:00,